Belfair, Washington
Current Conditions -  °F | °C
As of 10:15 AM on Monday 24 Nov 2014 (Local Time) from KPWT Reporting Station
Overcast Overcast  
Wind Chill: 43°   Ceiling: 400
Heat Index: 43°   Visibility: 9mi
Dew Point: 43°   Wind: 3mph
Humidity: 100%   Direction: 200°SSW
Pressure: 30.34"   Gusts: NA
Location:  47.45°N, 122.83°W
Report Text: KPWT 241815Z AUTO 20003KT 9SM OVC004 06/06 A3034 RMK AO1
Loading
Personal Weather Stations






























Interactive Weather Map New forecast layout! Learn more

10-Day Weather Forecast

Advertisements
Track Severe Weather on mobile